Time;durP1;ratioP1;P1;durP2;ratioP2;P2;SDS_P1;SDS_P2;PMS_P1;PMS_P2;Temp;Humidity;BMP_temperature;BMP_pressure;BME280_temperature;BME280_humidity;BME280_pressure;Samples;Min_cycle;Max_cycle;Signal;HPM_P1;HPM_P2
2023/05/29 00:00:00;;;;;;;;;;;;;;;;;;4877506;29;1774;-57
2023/05/29 00:02:27;;;;;;;;;;;;;;;;;;4877707;29;1722;-60
2023/05/29 00:04:54;;;;;;;;;;;;;;;;;;4876921;29;1716;-58
2023/05/29 00:07:21;;;;;;;;;;;;;;;;;;4877313;29;1923;-59
2023/05/29 00:09:49;;;;;;;;;;;;;;;;;;4877538;29;1822;-59
2023/05/29 00:12:16;;;;;;;;;;;;;;;;;;4877533;29;1795;-59
2023/05/29 00:14:43;;;;;;;;;;;;;;;;;;4876854;29;1858;-56
2023/05/29 00:17:12;;;;;;;;;;;;;;;;;;4876553;29;1783;-57
2023/05/29 00:19:39;;;;;;;;;;;;;;;;;;4877163;29;1796;-59
2023/05/29 00:22:06;;;;;;;;;;;;;;;;;;4876582;29;2004;-57
2023/05/29 00:24:34;;;;;;;;;;;;;;;;;;4877257;29;1748;-57
2023/05/29 00:27:01;;;;;;;;;;;;;;;;;;4876668;29;2065;-59
2023/05/29 00:29:30;;;;;;;;;;;;;;;;;;4876693;29;1695;-61
2023/05/29 00:31:57;;;;;;;;;;;;;;;;;;4877188;29;1719;-61
2023/05/29 00:34:25;;;;;;;;;;;;;;;;;;4875573;29;2223;-55
2023/05/29 00:36:55;;;;;;;;;;;;;;;;;;4875274;29;1603;-59
2023/05/29 00:39:22;;;;;;;;;;;;;;;;;;4876851;29;1927;-58
2023/05/29 00:41:50;;;;;;;;;;;;;;;;;;4876840;29;1808;-58
2023/05/29 00:44:18;;;;;;;;;;;;;;;;;;4875353;29;1669;-61
2023/05/29 00:46:46;;;;;;;;;;;;;;;;;;4876648;29;1840;-61
2023/05/29 00:49:13;;;;;;;;;;;;;;;;;;4890954;29;2007;-57
2023/05/29 00:51:41;;;;;;;;;;;;;;;;;;4894527;29;1850;-61
2023/05/29 00:54:11;;;;;;;;;;;;;;;;;;4897706;29;1937;-61
2023/05/29 00:56:42;;;;;;;;;;;;;;;;;;4895077;29;1715;-60
2023/05/29 00:59:11;;;;;;;;;;;;;;;;;;4893735;29;1646;-60
2023/05/29 01:01:39;;;;;;;;;;;;;;;;;;4893787;29;1833;-58
2023/05/29 01:04:07;;;;;;;;;;;;;;;;;;4893975;29;1739;-57
2023/05/29 01:06:35;;;;;;;;;;;;;;;;;;4901213;29;1689;-55
2023/05/29 01:09:03;;;;;;;;;;;;;;;;;;4901499;29;1992;-53
2023/05/29 01:11:30;;;;;;;;;;;;;;;;;;4901459;29;2025;-57
2023/05/29 01:14:00;;;;;;;;;;;;;;;;;;4899844;29;1729;-57
2023/05/29 01:16:33;;;;;;;;;;;;;;;;;;4901253;29;1755;-54
2023/05/29 01:19:19;;;;;;;;;;;;;;;;;;4901079;29;1861;-59
2023/05/29 01:21:49;;;;;;;;;;;;;;;;;;4901757;29;1798;-58
2023/05/29 01:24:23;;;;;;;;;;;;;;;;;;4901515;29;2031;-60
2023/05/29 01:27:02;;;;;;;;;;;;;;;;;;4901292;29;2051;-60
2023/05/29 01:29:32;;;;;;;;;;;;;;;;;;4900011;29;1761;-60
2023/05/29 01:31:59;;;;;;;;;;;;;;;;;;4900300;29;2094;-56
2023/05/29 01:34:26;;;;;;;;;;;;;;;;;;4900326;29;1754;-58
2023/05/29 01:36:54;;;;;;;;;;;;;;;;;;4901093;29;1647;-57
2023/05/29 01:39:21;;;;;;;;;;;;;;;;;;4900849;29;1959;-55
2023/05/29 01:41:49;;;;;;;;;;;;;;;;;;4901134;29;1698;-57
2023/05/29 01:44:16;;;;;;;;;;;;;;;;;;4901037;29;1665;-57
2023/05/29 01:46:46;;;;;;;;;;;;;;;;;;4899664;29;1869;-58
2023/05/29 01:49:14;;;;;;;;;;;;;;;;;;4901335;29;1983;-57
2023/05/29 01:51:42;;;;;;;;;;;;;;;;;;4899510;29;1654;-55
2023/05/29 01:54:09;;;;;;;;;;;;;;;;;;4903650;29;2068;-55
2023/05/29 01:56:37;;;;;;;;;;;;;;;;;;4915041;29;1736;-60
2023/05/29 01:59:05;;;;;;;;;;;;;;;;;;4881077;29;1777;-56
2023/05/29 02:01:33;;;;;;;;;;;;;;;;;;4880878;29;1859;-57
2023/05/29 02:04:00;;;;;;;;;;;;;;;;;;4882190;29;1802;-55
2023/05/29 02:06:30;;;;;;;;;;;;;;;;;;4901141;29;1702;-55
2023/05/29 02:08:58;;;;;;;;;;;;;;;;;;4900999;29;2097;-57
2023/05/29 02:11:26;;;;;;;;;;;;;;;;;;4901085;29;1900;-60
2023/05/29 02:13:54;;;;;;;;;;;;;;;;;;4900342;29;1641;-59
2023/05/29 02:16:21;;;;;;;;;;;;;;;;;;4899033;29;1930;-60
2023/05/29 02:18:49;;;;;;;;;;;;;;;;;;4890966;29;1695;-60
2023/05/29 02:21:17;;;;;;;;;;;;;;;;;;4878063;29;2108;-58
2023/05/29 02:23:44;;;;;;;;;;;;;;;;;;4879061;29;1989;-61
2023/05/29 02:26:12;;;;;;;;;;;;;;;;;;4878804;29;1839;-59
2023/05/29 02:28:39;;;;;;;;;;;;;;;;;;4879151;29;1915;-60
2023/05/29 02:31:06;;;;;;;;;;;;;;;;;;4878528;29;2073;-61
2023/05/29 02:33:35;;;;;;;;;;;;;;;;;;4877744;29;1856;-61
2023/05/29 02:36:03;;;;;;;;;;;;;;;;;;4878698;29;2150;-59
2023/05/29 02:38:30;;;;;;;;;;;;;;;;;;4896230;29;1744;-62
2023/05/29 02:40:59;;;;;;;;;;;;;;;;;;4897790;29;1844;-57
2023/05/29 02:43:26;;;;;;;;;;;;;;;;;;4897489;29;1711;-60
2023/05/29 02:45:54;;;;;;;;;;;;;;;;;;4897621;29;1719;-60
2023/05/29 02:48:22;;;;;;;;;;;;;;;;;;4897173;29;1903;-60
2023/05/29 02:50:49;;;;;;;;;;;;;;;;;;4897469;29;1828;-57
2023/05/29 02:53:16;;;;;;;;;;;;;;;;;;4898111;29;1729;-59
2023/05/29 02:55:44;;;;;;;;;;;;;;;;;;4897651;29;1609;-57
2023/05/29 02:58:11;;;;;;;;;;;;;;;;;;4885274;29;2098;-56
2023/05/29 03:00:38;;;;;;;;;;;;;;;;;;4878524;29;1836;-59
2023/05/29 03:03:06;;;;;;;;;;;;;;;;;;4897151;29;1824;-56
2023/05/29 03:05:33;;;;;;;;;;;;;;;;;;4895885;29;1624;-56
2023/05/29 03:08:00;;;;;;;;;;;;;;;;;;4897297;29;1987;-57
2023/05/29 03:10:28;;;;;;;;;;;;;;;;;;4897349;29;1643;-55
2023/05/29 03:12:55;;;;;;;;;;;;;;;;;;4896312;29;1872;-59
2023/05/29 03:15:23;;;;;;;;;;;;;;;;;;4896658;29;2112;-56
2023/05/29 03:17:50;;;;;;;;;;;;;;;;;;4895035;29;1773;-57
2023/05/29 03:20:23;;;;;;;;;;;;;;;;;;4882995;29;1792;-54
2023/05/29 03:22:54;;;;;;;;;;;;;;;;;;4876985;29;1752;-59
2023/05/29 03:25:22;;;;;;;;;;;;;;;;;;4881530;29;1909;-58
2023/05/29 03:27:50;;;;;;;;;;;;;;;;;;4907957;29;2304;-61
2023/05/29 03:30:20;;;;;;;;;;;;;;;;;;4876297;29;2117;-59
2023/05/29 03:32:49;;;;;;;;;;;;;;;;;;4876810;29;1648;-63
2023/05/29 03:35:20;;;;;;;;;;;;;;;;;;4875998;29;1831;-59
2023/05/29 03:37:48;;;;;;;;;;;;;;;;;;4876566;29;1819;-59
2023/05/29 03:40:15;;;;;;;;;;;;;;;;;;4876420;29;2069;-59
2023/05/29 03:42:43;;;;;;;;;;;;;;;;;;4876218;29;1631;-54
2023/05/29 03:45:12;;;;;;;;;;;;;;;;;;4876578;29;1682;-54
2023/05/29 03:47:40;;;;;;;;;;;;;;;;;;4894937;29;2306;-58
2023/05/29 03:50:08;;;;;;;;;;;;;;;;;;4896155;29;1708;-60
2023/05/29 03:52:36;;;;;;;;;;;;;;;;;;4894482;29;2026;-63
2023/05/29 03:55:05;;;;;;;;;;;;;;;;;;4897805;29;1761;-56
2023/05/29 03:57:33;;;;;;;;;;;;;;;;;;4888743;29;1682;-54
2023/05/29 04:00:00;;;;;;;;;;;;;;;;;;4876067;29;2146;-56
2023/05/29 04:02:27;;;;;;;;;;;;;;;;;;4877540;29;1849;-61
2023/05/29 04:04:55;;;;;;;;;;;;;;;;;;4877187;29;1724;-58
2023/05/29 04:07:22;;;;;;;;;;;;;;;;;;4877154;29;1909;-58
2023/05/29 04:09:50;;;;;;;;;;;;;;;;;;4877307;29;1907;-63
2023/05/29 04:12:17;;;;;;;;;;;;;;;;;;4876129;29;1676;-62
2023/05/29 04:14:44;;;;;;;;;;;;;;;;;;4876143;29;1938;-64
2023/05/29 04:17:12;;;;;;;;;;;;;;;;;;4893356;29;1746;-64
2023/05/29 04:19:41;;;;;;;;;;;;;;;;;;4893063;29;1880;-64
2023/05/29 04:22:09;;;;;;;;;;;;;;;;;;4892125;29;1852;-57
2023/05/29 04:24:36;;;;;;;;;;;;;;;;;;4894428;29;1792;-57
2023/05/29 04:27:04;;;;;;;;;;;;;;;;;;4891394;29;2253;-61
2023/05/29 04:29:33;;;;;;;;;;;;;;;;;;4891275;29;1996;-62
2023/05/29 04:32:04;;;;;;;;;;;;;;;;;;4892940;29;1710;-64
2023/05/29 04:34:31;;;;;;;;;;;;;;;;;;4893918;29;1763;-59
2023/05/29 04:36:59;;;;;;;;;;;;;;;;;;4892515;29;2218;-57
2023/05/29 04:39:26;;;;;;;;;;;;;;;;;;4891598;29;1995;-58
2023/05/29 04:41:54;;;;;;;;;;;;;;;;;;4892828;29;1690;-61
2023/05/29 04:44:25;;;;;;;;;;;;;;;;;;4892227;29;1718;-63
2023/05/29 04:46:53;;;;;;;;;;;;;;;;;;4892872;29;1736;-58
2023/05/29 04:49:21;;;;;;;;;;;;;;;;;;4893395;29;1990;-57
2023/05/29 04:51:52;;;;;;;;;;;;;;;;;;4892584;29;1730;-56
2023/05/29 04:54:19;;;;;;;;;;;;;;;;;;4895601;29;1964;-62
2023/05/29 04:56:51;;;;;;;;;;;;;;;;;;4892729;29;1844;-60
2023/05/29 04:59:21;;;;;;;;;;;;;;;;;;4875052;29;1995;-60
2023/05/29 05:01:48;;;;;;;;;;;;;;;;;;4876221;29;1741;-57
2023/05/29 05:04:16;;;;;;;;;;;;;;;;;;4876493;29;1752;-65
2023/05/29 05:06:44;;;;;;;;;;;;;;;;;;4875143;29;1899;-55
2023/05/29 05:09:12;;;;;;;;;;;;;;;;;;4875049;29;1989;-55
2023/05/29 05:11:40;;;;;;;;;;;;;;;;;;4875087;29;1642;-59
2023/05/29 05:14:07;;;;;;;;;;;;;;;;;;4875073;29;1703;-61
2023/05/29 05:16:35;;;;;;;;;;;;;;;;;;4876495;29;1660;-58
2023/05/29 05:19:03;;;;;;;;;;;;;;;;;;4874014;29;1804;-60
2023/05/29 05:21:33;;;;;;;;;;;;;;;;;;4875156;29;1603;-57
2023/05/29 05:24:02;;;;;;;;;;;;;;;;;;4893520;29;1869;-60
2023/05/29 05:26:30;;;;;;;;;;;;;;;;;;4893766;29;2096;-62
2023/05/29 05:28:57;;;;;;;;;;;;;;;;;;4893464;29;1982;-58
2023/05/29 05:31:28;;;;;;;;;;;;;;;;;;4893474;29;1779;-57
2023/05/29 05:33:55;;;;;;;;;;;;;;;;;;4892773;29;1817;-56
2023/05/29 05:36:23;;;;;;;;;;;;;;;;;;4894363;29;1661;-54
2023/05/29 05:38:56;;;;;;;;;;;;;;;;;;4893183;29;1874;-60
2023/05/29 05:41:23;;;;;;;;;;;;;;;;;;4893348;29;1780;-52
2023/05/29 05:43:51;;;;;;;;;;;;;;;;;;4893695;29;1766;-55
2023/05/29 05:46:38;;;;;;;;;;;;;;;;;;4893524;29;1740;-59
2023/05/29 05:49:05;;;;;;;;;;;;;;;;;;4893244;29;1978;-55
2023/05/29 05:51:32;;;;;;;;;;;;;;;;;;4893484;29;1709;-55
2023/05/29 05:54:00;;;;;;;;;;;;;;;;;;4900015;29;1781;-53
2023/05/29 05:56:28;;;;;;;;;;;;;;;;;;4896770;29;1958;-60
2023/05/29 05:58:55;;;;;;;;;;;;;;;;;;4879683;29;2254;-55
2023/05/29 06:01:23;;;;;;;;;;;;;;;;;;4879170;29;1950;-53
2023/05/29 06:03:51;;;;;;;;;;;;;;;;;;4877854;29;1861;-58
2023/05/29 06:06:18;;;;;;;;;;;;;;;;;;4878374;29;1663;-54
2023/05/29 06:08:47;;;;;;;;;;;;;;;;;;4877132;29;1924;-56
2023/05/29 06:11:15;;;;;;;;;;;;;;;;;;4877693;29;1962;-51
2023/05/29 06:13:45;;;;;;;;;;;;;;;;;;4878284;29;1897;-57
2023/05/29 06:16:19;;;;;;;;;;;;;;;;;;4878275;29;1750;-55
2023/05/29 06:18:46;;;;;;;;;;;;;;;;;;4879390;29;2034;-59
2023/05/29 06:21:16;;;;;;;;;;;;;;;;;;4877564;29;1715;-56
2023/05/29 06:23:50;;;;;;;;;;;;;;;;;;4877802;29;1770;-58
2023/05/29 06:26:17;;;;;;;;;;;;;;;;;;4878737;29;1758;-61
2023/05/29 06:28:45;;;;;;;;;;;;;;;;;;4879087;29;1980;-48
2023/05/29 06:31:12;;;;;;;;;;;;;;;;;;4877558;29;2008;-63
2023/05/29 06:33:40;;;;;;;;;;;;;;;;;;4877721;29;1870;-59
2023/05/29 06:36:07;;;;;;;;;;;;;;;;;;4877467;29;2163;-58
2023/05/29 06:38:35;;;;;;;;;;;;;;;;;;4877635;29;1686;-57
2023/05/29 06:41:03;;;;;;;;;;;;;;;;;;4878554;29;1725;-54
2023/05/29 06:43:32;;;;;;;;;;;;;;;;;;4877183;29;1908;-60
2023/05/29 06:46:02;;;;;;;;;;;;;;;;;;4877709;29;1942;-58
2023/05/29 06:48:32;;;;;;;;;;;;;;;;;;4876997;29;1983;-63
2023/05/29 06:50:59;;;;;;;;;;;;;;;;;;4877407;29;1873;-63
2023/05/29 06:53:53;;;;;;;;;;;;;;;;;;4887860;29;1658;-62
2023/05/29 06:56:22;;;;;;;;;;;;;;;;;;4877426;29;1984;-60
2023/05/29 06:58:49;;;;;;;;;;;;;;;;;;4878995;29;1722;-59
2023/05/29 07:01:16;;;;;;;;;;;;;;;;;;4878485;29;1846;-59
2023/05/29 07:04:03;;;;;;;;;;;;;;;;;;4876166;29;1769;-56
2023/05/29 07:06:31;;;;;;;;;;;;;;;;;;4889290;29;1791;-57
2023/05/29 07:08:58;;;;;;;;;;;;;;;;;;4895423;29;1917;-65
2023/05/29 07:11:26;;;;;;;;;;;;;;;;;;4895164;29;1872;-52
2023/05/29 07:13:54;;;;;;;;;;;;;;;;;;4895507;29;1824;-62
2023/05/29 07:16:22;;;;;;;;;;;;;;;;;;4895379;29;2134;-64
2023/05/29 07:19:03;;;;;;;;;;;;;;;;;;4894982;29;2110;-65
2023/05/29 07:21:35;;;;;;;;;;;;;;;;;;4895103;29;1887;-63
2023/05/29 07:24:04;;;;;;;;;;;;;;;;;;4894937;29;1863;-63
2023/05/29 07:26:31;;;;;;;;;;;;;;;;;;4895108;29;1876;-58
2023/05/29 07:28:59;;;;;;;;;;;;;;;;;;4893850;29;1908;-64
2023/05/29 07:31:27;;;;;;;;;;;;;;;;;;4909748;29;2435;-64
2023/05/29 07:33:55;;;;;;;;;;;;;;;;;;4876937;29;1630;-61
2023/05/29 07:36:22;;;;;;;;;;;;;;;;;;4874764;29;1835;-64
2023/05/29 07:38:53;;;;;;;;;;;;;;;;;;4875258;29;1758;-60
2023/05/29 07:41:21;;;;;;;;;;;;;;;;;;4874896;29;1815;-60
2023/05/29 07:43:52;;;;;;;;;;;;;;;;;;4875903;29;1846;-65
2023/05/29 07:46:19;;;;;;;;;;;;;;;;;;4876153;29;1835;-48
2023/05/29 07:48:52;;;;;;;;;;;;;;;;;;4890463;29;1919;-64
2023/05/29 07:51:20;;;;;;;;;;;;;;;;;;4896143;29;1871;-51
2023/05/29 07:53:49;;;;;;;;;;;;;;;;;;4896766;29;1843;-63
2023/05/29 07:56:19;;;;;;;;;;;;;;;;;;4894906;29;1723;-56
2023/05/29 07:58:47;;;;;;;;;;;;;;;;;;4878262;29;2172;-64
2023/05/29 08:01:15;;;;;;;;;;;;;;;;;;4876034;29;1868;-62
2023/05/29 08:03:43;;;;;;;;;;;;;;;;;;4875686;29;2243;-65
2023/05/29 08:06:13;;;;;;;;;;;;;;;;;;4877450;29;2027;-63
2023/05/29 08:08:42;;;;;;;;;;;;;;;;;;4876911;29;1665;-48
2023/05/29 08:11:10;;;;;;;;;;;;;;;;;;4877221;29;2104;-64
2023/05/29 08:13:37;;;;;;;;;;;;;;;;;;4906433;29;1661;-62
2023/05/29 08:16:05;;;;;;;;;;;;;;;;;;4909347;29;1789;-63
2023/05/29 08:18:32;;;;;;;;;;;;;;;;;;4895872;29;1637;-63
2023/05/29 08:20:59;;;;;;;;;;;;;;;;;;4895727;29;1851;-60
2023/05/29 08:23:27;;;;;;;;;;;;;;;;;;4895565;29;1827;-62
2023/05/29 08:25:54;;;;;;;;;;;;;;;;;;4895861;29;1839;-61
2023/05/29 08:28:22;;;;;;;;;;;;;;;;;;4895675;29;1664;-56
2023/05/29 08:30:51;;;;;;;;;;;;;;;;;;4895816;29;1941;-64
2023/05/29 08:33:18;;;;;;;;;;;;;;;;;;4895315;29;1873;-53
2023/05/29 08:35:46;;;;;;;;;;;;;;;;;;4894812;29;1642;-66
2023/05/29 08:38:13;;;;;;;;;;;;;;;;;;4895151;29;1982;-63
2023/05/29 08:40:40;;;;;;;;;;;;;;;;;;4895154;29;1738;-61
2023/05/29 08:43:12;;;;;;;;;;;;;;;;;;4895164;29;2060;-65
2023/05/29 08:45:45;;;;;;;;;;;;;;;;;;4891847;29;1970;-59
2023/05/29 08:48:12;;;;;;;;;;;;;;;;;;4895621;29;1820;-54
2023/05/29 08:50:44;;;;;;;;;;;;;;;;;;4895239;29;2100;-64
2023/05/29 08:53:13;;;;;;;;;;;;;;;;;;4896271;29;1771;-64
2023/05/29 08:55:40;;;;;;;;;;;;;;;;;;4896395;29;1911;-62
2023/05/29 08:58:08;;;;;;;;;;;;;;;;;;4884257;29;1626;-53
2023/05/29 09:00:36;;;;;;;;;;;;;;;;;;4876551;29;1813;-59
2023/05/29 09:03:03;;;;;;;;;;;;;;;;;;4876671;29;1677;-61
2023/05/29 09:05:30;;;;;;;;;;;;;;;;;;4876646;29;1829;-64
2023/05/29 09:07:58;;;;;;;;;;;;;;;;;;4875914;29;1736;-56
2023/05/29 09:10:26;;;;;;;;;;;;;;;;;;4876689;29;2209;-62
2023/05/29 09:12:53;;;;;;;;;;;;;;;;;;4876397;29;1706;-63
2023/05/29 09:15:21;;;;;;;;;;;;;;;;;;4876698;29;2065;-63
2023/05/29 09:17:55;;;;;;;;;;;;;;;;;;4875303;29;1848;-52
2023/05/29 09:20:23;;;;;;;;;;;;;;;;;;4875344;29;2148;-54
2023/05/29 09:22:58;;;;;;;;;;;;;;;;;;4875131;29;1766;-61
2023/05/29 09:25:30;;;;;;;;;;;;;;;;;;4875457;29;1875;-53
2023/05/29 09:27:58;;;;;;;;;;;;;;;;;;4879093;29;1809;-54
2023/05/29 09:30:40;;;;;;;;;;;;;;;;;;4879033;29;1919;-63
2023/05/29 09:33:08;;;;;;;;;;;;;;;;;;4879772;29;1727;-56
2023/05/29 09:35:40;;;;;;;;;;;;;;;;;;4880067;29;1713;-63
2023/05/29 09:38:08;;;;;;;;;;;;;;;;;;4880030;29;1701;-63
2023/05/29 09:40:39;;;;;;;;;;;;;;;;;;4879850;29;2051;-58
2023/05/29 09:43:11;;;;;;;;;;;;;;;;;;4882512;29;1969;-64
2023/05/29 09:45:39;;;;;;;;;;;;;;;;;;4877855;29;1655;-60
2023/05/29 09:48:08;;;;;;;;;;;;;;;;;;4878374;29;2117;-61
2023/05/29 09:50:35;;;;;;;;;;;;;;;;;;4877973;29;1983;-58
2023/05/29 09:53:03;;;;;;;;;;;;;;;;;;4878361;29;1622;-65
2023/05/29 09:55:31;;;;;;;;;;;;;;;;;;4899384;29;1807;-64
2023/05/29 09:57:59;;;;;;;;;;;;;;;;;;4886822;29;1844;-50
2023/05/29 10:00:26;;;;;;;;;;;;;;;;;;4878509;29;1749;-64
2023/05/29 10:02:53;;;;;;;;;;;;;;;;;;4877838;29;1786;-61
2023/05/29 10:05:21;;;;;;;;;;;;;;;;;;4877626;29;1706;-57
2023/05/29 10:07:51;;;;;;;;;;;;;;;;;;4877566;29;1678;-57
2023/05/29 10:10:18;;;;;;;;;;;;;;;;;;4877980;29;1907;-63
2023/05/29 10:12:48;;;;;;;;;;;;;;;;;;4878293;29;1846;-60
2023/05/29 10:15:16;;;;;;;;;;;;;;;;;;4879662;29;1842;-58
2023/05/29 10:18:00;;;;;;;;;;;;;;;;;;4879353;29;1633;-59
2023/05/29 10:20:35;;;;;;;;;;;;;;;;;;4879530;29;1903;-63
2023/05/29 10:23:09;;;;;;;;;;;;;;;;;;4879078;29;1947;-63
2023/05/29 10:25:41;;;;;;;;;;;;;;;;;;4878996;29;1753;-60
2023/05/29 10:28:16;;;;;;;;;;;;;;;;;;4879007;29;1826;-60
2023/05/29 10:31:05;;;;;;;;;;;;;;;;;;4892130;29;1966;-61
2023/05/29 10:33:55;;;;;;;;;;;;;;;;;;4879069;29;1787;-61
2023/05/29 10:36:35;;;;;;;;;;;;;;;;;;4878980;29;1654;-65
2023/05/29 10:39:09;;;;;;;;;;;;;;;;;;4878267;29;1973;-64
2023/05/29 10:41:42;;;;;;;;;;;;;;;;;;4878841;29;1736;-64
2023/05/29 10:44:47;;;;;;;;;;;;;;;;;;4878657;29;2095;-63
2023/05/29 10:47:26;;;;;;;;;;;;;;;;;;4876895;29;1856;-62
2023/05/29 10:50:03;;;;;;;;;;;;;;;;;;4877792;29;1917;-60
2023/05/29 10:52:36;;;;;;;;;;;;;;;;;;4879579;29;1861;-63
2023/05/29 10:55:13;;;;;;;;;;;;;;;;;;4897509;29;1726;-64
2023/05/29 10:57:49;;;;;;;;;;;;;;;;;;4888966;29;1762;-54
2023/05/29 11:00:29;;;;;;;;;;;;;;;;;;4878855;29;1722;-61
2023/05/29 11:03:06;;;;;;;;;;;;;;;;;;4892549;29;1723;-64
2023/05/29 11:05:57;;;;;;;;;;;;;;;;;;4876986;29;1798;-54
2023/05/29 11:08:42;;;;;;;;;;;;;;;;;;4878337;29;2026;-61
2023/05/29 11:11:17;;;;;;;;;;;;;;;;;;4878346;29;1998;-65
2023/05/29 11:13:55;;;;;;;;;;;;;;;;;;4876834;29;1755;-53
2023/05/29 11:16:32;;;;;;;;;;;;;;;;;;4878573;29;2080;-63
2023/05/29 11:19:09;;;;;;;;;;;;;;;;;;4878097;29;2065;-58
2023/05/29 11:21:49;;;;;;;;;;;;;;;;;;4878197;29;1690;-64
2023/05/29 11:24:21;;;;;;;;;;;;;;;;;;4877555;29;1781;-64
2023/05/29 11:26:51;;;;;;;;;;;;;;;;;;4878171;29;1619;-61
2023/05/29 11:29:22;;;;;;;;;;;;;;;;;;4877668;29;1935;-64
2023/05/29 11:31:53;;;;;;;;;;;;;;;;;;4878138;29;1911;-63
2023/05/29 11:34:21;;;;;;;;;;;;;;;;;;4877901;29;1662;-60
2023/05/29 11:36:49;;;;;;;;;;;;;;;;;;4878153;29;1700;-62
2023/05/29 11:39:16;;;;;;;;;;;;;;;;;;4877844;29;1732;-63
2023/05/29 11:41:43;;;;;;;;;;;;;;;;;;4878012;29;1719;-63
2023/05/29 11:44:13;;;;;;;;;;;;;;;;;;4877811;29;1725;-65
2023/05/29 11:46:40;;;;;;;;;;;;;;;;;;4896568;29;2179;-65
2023/05/29 11:49:08;;;;;;;;;;;;;;;;;;4896011;29;1637;-61
2023/05/29 11:51:36;;;;;;;;;;;;;;;;;;4896332;29;1915;-57
2023/05/29 11:54:03;;;;;;;;;;;;;;;;;;4899252;29;1719;-63
2023/05/29 11:56:31;;;;;;;;;;;;;;;;;;4896081;29;1892;-62
2023/05/29 11:58:59;;;;;;;;;;;;;;;;;;4878405;29;1763;-61
2023/05/29 12:01:28;;;;;;;;;;;;;;;;;;4876977;29;1844;-61
2023/05/29 12:03:55;;;;;;;;;;;;;;;;;;4876712;29;1775;-60
2023/05/29 12:06:32;;;;;;;;;;;;;;;;;;4877206;29;1772;-62
2023/05/29 12:09:01;;;;;;;;;;;;;;;;;;4877021;29;1849;-62
2023/05/29 12:11:28;;;;;;;;;;;;;;;;;;4877258;29;1919;-63
2023/05/29 12:13:57;;;;;;;;;;;;;;;;;;4876960;29;1776;-64
2023/05/29 12:16:25;;;;;;;;;;;;;;;;;;4877325;29;2126;-62
2023/05/29 12:18:53;;;;;;;;;;;;;;;;;;4876833;29;1974;-61
2023/05/29 12:21:21;;;;;;;;;;;;;;;;;;4877504;29;1791;-63
2023/05/29 12:23:51;;;;;;;;;;;;;;;;;;4877456;29;1792;-64
2023/05/29 12:26:25;;;;;;;;;;;;;;;;;;4895987;29;1670;-60
2023/05/29 12:28:53;;;;;;;;;;;;;;;;;;4895634;29;1831;-62
2023/05/29 12:31:31;;;;;;;;;;;;;;;;;;4893713;29;2066;-60
2023/05/29 12:33:59;;;;;;;;;;;;;;;;;;4895500;29;1741;-63
2023/05/29 12:36:27;;;;;;;;;;;;;;;;;;4895048;29;1646;-63
2023/05/29 12:38:54;;;;;;;;;;;;;;;;;;4895851;29;1725;-63
2023/05/29 12:41:26;;;;;;;;;;;;;;;;;;4895653;29;1616;-63
2023/05/29 12:43:55;;;;;;;;;;;;;;;;;;4895439;29;1846;-63
2023/05/29 12:46:22;;;;;;;;;;;;;;;;;;4895378;29;1668;-63
2023/05/29 12:48:52;;;;;;;;;;;;;;;;;;4894666;29;1907;-58
2023/05/29 12:51:23;;;;;;;;;;;;;;;;;;4895356;29;1915;-58
2023/05/29 12:53:50;;;;;;;;;;;;;;;;;;4897030;29;1874;-52
2023/05/29 12:56:17;;;;;;;;;;;;;;;;;;4894934;29;1641;-60
2023/05/29 12:58:44;;;;;;;;;;;;;;;;;;4878441;29;1610;-63
2023/05/29 13:01:12;;;;;;;;;;;;;;;;;;4876505;29;1737;-63
2023/05/29 13:03:39;;;;;;;;;;;;;;;;;;4876632;29;1736;-63
2023/05/29 13:06:07;;;;;;;;;;;;;;;;;;4876974;29;1805;-59
2023/05/29 13:08:34;;;;;;;;;;;;;;;;;;4876973;29;1707;-56
2023/05/29 13:11:02;;;;;;;;;;;;;;;;;;4876706;29;1978;-63
2023/05/29 13:13:29;;;;;;;;;;;;;;;;;;4876806;29;1594;-59
2023/05/29 13:15:56;;;;;;;;;;;;;;;;;;4876261;29;1731;-60
2023/05/29 13:18:23;;;;;;;;;;;;;;;;;;4876553;29;1611;-55
2023/05/29 13:20:51;;;;;;;;;;;;;;;;;;4876376;29;1929;-63
2023/05/29 13:23:18;;;;;;;;;;;;;;;;;;4876384;29;1712;-59
2023/05/29 13:25:48;;;;;;;;;;;;;;;;;;4876635;29;1828;-59
2023/05/29 13:28:18;;;;;;;;;;;;;;;;;;4895416;29;1748;-62
2023/05/29 13:30:45;;;;;;;;;;;;;;;;;;4895119;29;1918;-60
2023/05/29 13:33:12;;;;;;;;;;;;;;;;;;4894631;29;1893;-63
2023/05/29 13:35:40;;;;;;;;;;;;;;;;;;4895251;29;1864;-61
2023/05/29 13:38:07;;;;;;;;;;;;;;;;;;4895076;29;1835;-52
2023/05/29 13:40:35;;;;;;;;;;;;;;;;;;4895254;29;2011;-61
2023/05/29 13:43:02;;;;;;;;;;;;;;;;;;4895013;29;1690;-55
2023/05/29 13:45:30;;;;;;;;;;;;;;;;;;4894900;29;1942;-63
2023/05/29 13:47:57;;;;;;;;;;;;;;;;;;4895080;29;1895;-64
2023/05/29 13:50:24;;;;;;;;;;;;;;;;;;4894960;29;1976;-65
2023/05/29 13:52:51;;;;;;;;;;;;;;;;;;4894753;29;1719;-57
2023/05/29 13:55:19;;;;;;;;;;;;;;;;;;4895260;29;1957;-60
2023/05/29 13:57:46;;;;;;;;;;;;;;;;;;4885976;29;1767;-62
2023/05/29 14:00:13;;;;;;;;;;;;;;;;;;4876168;29;2146;-62
2023/05/29 14:02:42;;;;;;;;;;;;;;;;;;4875847;29;1908;-56
2023/05/29 14:05:10;;;;;;;;;;;;;;;;;;4876596;29;1846;-63
2023/05/29 14:07:38;;;;;;;;;;;;;;;;;;4875202;29;2107;-64
2023/05/29 14:10:05;;;;;;;;;;;;;;;;;;4875755;29;1761;-63
2023/05/29 14:12:32;;;;;;;;;;;;;;;;;;4875808;29;1911;-47
2023/05/29 14:15:00;;;;;;;;;;;;;;;;;;4879031;29;1735;-61
2023/05/29 14:17:27;;;;;;;;;;;;;;;;;;4878881;29;2010;-55
2023/05/29 14:19:55;;;;;;;;;;;;;;;;;;4878764;29;1969;-55
2023/05/29 14:22:25;;;;;;;;;;;;;;;;;;4879232;29;1699;-63
2023/05/29 14:24:52;;;;;;;;;;;;;;;;;;4878762;29;1788;-55
2023/05/29 14:27:19;;;;;;;;;;;;;;;;;;4879240;29;1856;-60
2023/05/29 14:29:48;;;;;;;;;;;;;;;;;;4879478;29;1707;-52
2023/05/29 14:32:15;;;;;;;;;;;;;;;;;;4897747;29;1982;-61
2023/05/29 14:34:42;;;;;;;;;;;;;;;;;;4897875;29;1630;-61
2023/05/29 14:37:12;;;;;;;;;;;;;;;;;;4897251;29;1751;-54
2023/05/29 14:39:39;;;;;;;;;;;;;;;;;;4897896;29;1843;-60
2023/05/29 14:42:07;;;;;;;;;;;;;;;;;;4897805;29;2282;-63
2023/05/29 14:44:34;;;;;;;;;;;;;;;;;;4897895;29;2287;-60
2023/05/29 14:47:01;;;;;;;;;;;;;;;;;;4897599;29;1718;-59
2023/05/29 14:49:31;;;;;;;;;;;;;;;;;;4897649;29;2013;-58
2023/05/29 14:51:59;;;;;;;;;;;;;;;;;;4897311;29;2054;-64
2023/05/29 14:54:27;;;;;;;;;;;;;;;;;;4898249;29;2176;-61
2023/05/29 14:56:55;;;;;;;;;;;;;;;;;;4895246;29;1996;-62
2023/05/29 14:59:23;;;;;;;;;;;;;;;;;;4878276;29;2261;-63
2023/05/29 15:01:53;;;;;;;;;;;;;;;;;;4878233;29;2419;-63
2023/05/29 15:04:20;;;;;;;;;;;;;;;;;;4889975;29;2097;-60
2023/05/29 15:06:47;;;;;;;;;;;;;;;;;;4897043;29;1887;-61
2023/05/29 15:09:21;;;;;;;;;;;;;;;;;;4897180;29;2063;-63
2023/05/29 15:11:48;;;;;;;;;;;;;;;;;;4896929;29;2009;-55
2023/05/29 15:14:17;;;;;;;;;;;;;;;;;;4897064;29;1873;-60
2023/05/29 15:16:44;;;;;;;;;;;;;;;;;;4897354;29;2040;-55
2023/05/29 15:19:11;;;;;;;;;;;;;;;;;;4896546;29;1762;-61
2023/05/29 15:21:38;;;;;;;;;;;;;;;;;;4896874;29;2123;-57
2023/05/29 15:24:06;;;;;;;;;;;;;;;;;;4896279;29;2009;-56
2023/05/29 15:26:33;;;;;;;;;;;;;;;;;;4896467;29;1985;-54
2023/05/29 15:29:00;;;;;;;;;;;;;;;;;;4896336;29;2012;-60
2023/05/29 15:31:28;;;;;;;;;;;;;;;;;;4896569;29;1992;-59
2023/05/29 15:33:55;;;;;;;;;;;;;;;;;;4896834;29;2035;-61
2023/05/29 15:36:22;;;;;;;;;;;;;;;;;;4896684;29;1897;-55
2023/05/29 15:38:50;;;;;;;;;;;;;;;;;;4896324;29;2207;-58
2023/05/29 15:41:17;;;;;;;;;;;;;;;;;;4896468;29;1771;-59
2023/05/29 15:43:44;;;;;;;;;;;;;;;;;;4896663;29;2083;-61
2023/05/29 15:46:11;;;;;;;;;;;;;;;;;;4896414;29;2134;-60
2023/05/29 15:48:39;;;;;;;;;;;;;;;;;;4896234;29;2112;-54
2023/05/29 15:51:06;;;;;;;;;;;;;;;;;;4894805;29;2322;-59
2023/05/29 15:53:33;;;;;;;;;;;;;;;;;;4897266;29;2323;-58
2023/05/29 15:56:00;;;;;;;;;;;;;;;;;;4895939;29;2195;-55
2023/05/29 15:58:28;;;;;;;;;;;;;;;;;;4881704;29;1995;-62
2023/05/29 16:00:55;;;;;;;;;;;;;;;;;;4877119;29;2212;-52
2023/05/29 16:03:23;;;;;;;;;;;;;;;;;;4876927;29;2764;-54
2023/05/29 16:05:50;;;;;;;;;;;;;;;;;;4877250;29;2072;-55
2023/05/29 16:08:17;;;;;;;;;;;;;;;;;;4877328;29;2122;-54
2023/05/29 16:10:44;;;;;;;;;;;;;;;;;;4877168;29;2050;-57
2023/05/29 16:13:14;;;;;;;;;;;;;;;;;;4876916;29;2160;-59
2023/05/29 16:15:42;;;;;;;;;;;;;;;;;;4877261;29;2096;-54
2023/05/29 16:18:09;;;;;;;;;;;;;;;;;;4877346;29;2040;-59
2023/05/29 16:20:36;;;;;;;;;;;;;;;;;;4876505;29;2394;-57
2023/05/29 16:23:03;;;;;;;;;;;;;;;;;;4876880;29;2118;-57
2023/05/29 16:25:31;;;;;;;;;;;;;;;;;;4876928;29;2221;-57
2023/05/29 16:27:58;;;;;;;;;;;;;;;;;;4876664;29;2255;-53
2023/05/29 16:30:25;;;;;;;;;;;;;;;;;;4877154;29;2119;-60
2023/05/29 16:32:53;;;;;;;;;;;;;;;;;;4876910;29;2592;-58
2023/05/29 16:35:20;;;;;;;;;;;;;;;;;;4876663;29;2199;-56
2023/05/29 16:37:50;;;;;;;;;;;;;;;;;;4877118;29;2028;-57
2023/05/29 16:40:19;;;;;;;;;;;;;;;;;;4876331;29;2085;-58
2023/05/29 16:42:47;;;;;;;;;;;;;;;;;;4875169;29;2024;-54
2023/05/29 16:45:15;;;;;;;;;;;;;;;;;;4875264;29;2078;-60
2023/05/29 16:47:42;;;;;;;;;;;;;;;;;;4875335;29;1807;-57
2023/05/29 16:50:09;;;;;;;;;;;;;;;;;;4875181;29;2424;-59
2023/05/29 16:52:36;;;;;;;;;;;;;;;;;;4875469;29;2067;-58
2023/05/29 16:55:04;;;;;;;;;;;;;;;;;;4891555;29;2068;-59
2023/05/29 16:57:34;;;;;;;;;;;;;;;;;;4886789;29;2386;-63
2023/05/29 17:00:01;;;;;;;;;;;;;;;;;;4876645;29;2204;-60
2023/05/29 17:02:28;;;;;;;;;;;;;;;;;;4893337;29;2077;-59
2023/05/29 17:04:55;;;;;;;;;;;;;;;;;;4876615;29;2131;-60
2023/05/29 17:07:23;;;;;;;;;;;;;;;;;;4876326;29;2124;-53
2023/05/29 17:09:50;;;;;;;;;;;;;;;;;;4876509;29;2324;-55
2023/05/29 17:12:17;;;;;;;;;;;;;;;;;;4876072;29;2052;-57
2023/05/29 17:14:44;;;;;;;;;;;;;;;;;;4876413;29;2314;-57